EA1HJA-2
43.28.10N 005.30.45W
IN73FL aprs.fi
zuletzt gehoert:
2022-01-28T12:18:47Z
zuerst gehoert:
2020-02-14T17:30:18Z

APRS Villaviciosa [IN73FL], 0 Stunde(n), EA1HJA-2 [13:32:51, 0s].
EA1FHR 43.28.72N 005.26.41WIN73GL 5.320km 77°ENE11:34:30ZMMDVM MMDVM HS Hat 439.1500/439.1500 CC1
EA1HWD 43.28.96N 005.26.30WIN73GL 5.593km 73°ENE12:32:46Z144.575FM Local frecuency VHF. 434.2500/434.2500 CC1
EB1GEM 43.30.00N 005.36.07WIN73EM 8.594km 295°WNW12:12:39ZWX3in1Plus2.0 U=13.3V,T=??.?C/??.?F(3EB1GEM-3)
ED1ZAS 43.27.52N 005.40.17WIN73DL 13.364km 266°W12:30:59ZRD985 438.2250/430.6250 CC1
ED1ZAE 43.27.99N 005.40.54WIN73DL 13.825km 270°W12:29:12Z400 M. PICO SAN MARTIN (GIJON) 13.0V,15.7C(3ED1ZAE-3)
EA1FLQ 43.22.00N 005.36.35WIN73EI 13.902km 216°SW12:32:39ZMMDVM DVMega 439.9750/439.9750 CC1
EA1DZR 43.31.47N 005.40.00WIN73DM 14.537km 296°WNW12:02:49ZMMDVM DVMega 431.1000/431.1000 CC1
EA1IEJ 43.31.81N 005.40.25WIN73DM 15.116km 298°WNW11:33:58ZMMDVM MMDVM HS Hat 438.8500/438.8500 CC6
LEEL 43.32.98N 005.41.71WIN73DN 17.885km 301°WNW12:30:37ZHelipuerto de El Musel: LEAS 281130Z 10007KT 050V150 9999 OVC023 08/04 Q1037 NOSIG=
EB1TK 43.32.22N 005.42.32WIN73DM 17.944km 296°WNW12:05:27ZWind 085°/016kn, Böen bis 025kn, Temp 9.44c, Regen 0.0mm, letzte 24h 0.0mm, seit 0h 0.0mm, Baro 1039.5h, Hum: 77%(3EB1TK-13)
EA1JBU 43.30.80N 005.16.20WIN73IM 19.571km 75°ENE12:30:36ZEA1JBU(3EA1JBU-2)
EA1JBE 43.30.90N 005.16.15WIN73IM 19.697km 74°ENE12:30:19ZDario(3EA1JBE-7)
Dario(2EA1JBE-13)
MAIN QTH http://qrz.com/db/ea1jbe(2EA1JBE-1)
EA1AQK 43.16.49N 005.35.99WIN73EG 22.768km 200°SSW11:33:27ZMMDVM MMDVM HS Hat 439.8500/439.8500 CC1
EA1ABW 43.24.77N 005.47.77WIN73CJ 24.330km 256°WSW12:31:19ZMMDVM MMDVM HS Hat 439.8250/439.8250 CC1
EC1AE 43.22.95N 005.47.06WIN73CJ 24.492km 247°WSW12:04:24Z`EC1AE - FM & Digital C4FM._%(3EC1AE-9)
LEMR 43.25.83N 005.49.60WIN73CK 26.343km 261°W12:30:36ZAerodromo de la Morgal: LEAS 281130Z 10007KT 050V150 9999 OVC023 08/04 Q1037 NOSIG=
LEGM 43.26.15N 005.49.84WIN73CK 26.559km 262°W12:30:32ZHelipuerto de La Morgal: LEAS 281130Z 10007KT 050V150 9999 OVC023 08/04 Q1037 NOSIG=
LEHU 43.22.63N 005.49.57WIN73CJ 27.867km 249°WSW12:30:34ZHelipuerto del HUCA: LEAS 281130Z 10007KT 050V150 9999 OVC023 08/04 Q1037 NOSIG=
33D00 43.21.63N 005.51.13WIN73BI 30.501km 247°WSW12:01:54Z33-D-00 Protección Civil REMER / Delegación del Gobierno en Asturias
EA1JAY 43.21.54N 005.51.34WIN73BI 30.839km 247°WSW12:30:36ZEA1JAY(3EA1JAY-2)
434.525MHz Nodo TETRA DMO(2EA1JAY-4)
EB1JAJ 43.21.72N 005.51.82WIN73BI 31.295km 248°WSW12:32:39ZMMDVM MMDVM HS Dual Hat 438.0250/431.0250 CC1
EA1L 43.20.38N 005.51.13WIN73BI 31.486km 243°WSW12:03:27ZWind 061°/005kn, Böen bis 009kn, Temp 8.33c, Regen 0.0mm, letzte 24h 0.0mm, seit 0h 0.0mm, Baro 1034.1h, Hum: 73%(3EA1L-13)
ea1l@ure.es V=13.5V,T=??.?C(2EA1L)
ED1ZAU 43.23.04N 005.52.75WIN73BJ 31.663km 253°WSW12:30:53ZRD625 438.5000/430.9000 CC1
EA1HJA 43.21.47N 005.52.09WIN73BI 31.813km 248°WSW12:25:46Z IN73FL WX3IN1+ 2.0 - V=13.2V,TX TEMP=24.1C(3EA1HJA-2)
EA1HJA@URE.ES(2EA1HJA)
EA1HWX 43.19.29N 005.50.96WIN73BH 32.263km 240°WSW12:32:39ZDMO - UHF 439.7250/431.0000 CC11
EA1AHA 43.32.72N 005.54.38WIN73BN 33.538km 285°WNW12:06:25ZWind 135°/011kn, Böen bis 015kn, Temp 10.56c, Regen 0.0mm, letzte 24h 0.0mm, seit 0h 0.0mm, Baro 1038.3h, Hum: 62%(3EA1AHA-13)
EB1DGC 43.12.60N 005.45.59WIN73CF 35.319km 216°SW11:33:55ZMMDVM MMDVM HS Hat 433.4500/433.4500 CC1
ED1ZAY 43.29.47N 005.56.54WIN73AL 35.432km 274°W12:30:56ZRD625 438.3000/430.7000 CC1
ED1ZBF 43.19.16N 005.06.74WIN73KH 35.697km 117°ESE12:30:57ZRD625 438.4750/430.8750 CC1
EA1JBL 43.12.28N 005.47.42WIN73CE 37.266km 218°SW12:32:49ZMMDVM DVMega 435.3000/435.3000 CC1
ED1ZAD 43.07.90N 005.38.52WIN73ED 38.963km 197°SSW12:27:50ZED1ZAD-3 APRS Digi/Igate(3ED1ZAD-3)
EA1RCG 43.09.45N 005.49.78WIN73CD 43.364km 217°SW11:34:14ZGRUPO RADIO GALENA (GRG) 430.4500/430.4500 CC1

aprs.pl 5.0.011w DL3EL © 2006-2021 [1506836]